sensor_id;sensor_type;location;lat;lon;timestamp;P1;durP1;ratioP1;P2;durP2;ratioP2
46322;SDS011;32044;52.386;13.278;2023-03-11T00:00:31;70.13;;;27.45;;
46322;SDS011;32044;52.386;13.278;2023-03-11T00:03:01;50.20;;;23.40;;
46322;SDS011;32044;52.386;13.278;2023-03-11T00:05:30;79.15;;;32.22;;
46322;SDS011;32044;52.386;13.278;2023-03-11T00:07:59;63.13;;;28.95;;
46322;SDS011;32044;52.386;13.278;2023-03-11T00:10:29;51.05;;;23.08;;
46322;SDS011;32044;52.386;13.278;2023-03-11T00:12:57;55.17;;;24.67;;
46322;SDS011;32044;52.386;13.278;2023-03-11T00:15:25;52.88;;;24.52;;
46322;SDS011;32044;52.386;13.278;2023-03-11T00:17:54;64.47;;;26.58;;
46322;SDS011;32044;52.386;13.278;2023-03-11T00:20:22;65.10;;;26.85;;
46322;SDS011;32044;52.386;13.278;2023-03-11T00:22:52;68.82;;;27.42;;
46322;SDS011;32044;52.386;13.278;2023-03-11T00:25:20;56.05;;;24.23;;
46322;SDS011;32044;52.386;13.278;2023-03-11T00:27:48;63.70;;;26.02;;
46322;SDS011;32044;52.386;13.278;2023-03-11T00:30:16;51.08;;;23.67;;
46322;SDS011;32044;52.386;13.278;2023-03-11T00:32:45;55.20;;;24.77;;
46322;SDS011;32044;52.386;13.278;2023-03-11T00:35:16;64.88;;;25.92;;
46322;SDS011;32044;52.386;13.278;2023-03-11T00:37:46;61.75;;;26.42;;
46322;SDS011;32044;52.386;13.278;2023-03-11T00:40:15;66.35;;;28.10;;
46322;SDS011;32044;52.386;13.278;2023-03-11T00:42:45;56.03;;;27.30;;
46322;SDS011;32044;52.386;13.278;2023-03-11T00:45:12;65.35;;;27.35;;
46322;SDS011;32044;52.386;13.278;2023-03-11T00:47:41;73.63;;;28.83;;
46322;SDS011;32044;52.386;13.278;2023-03-11T00:50:10;70.50;;;29.13;;
46322;SDS011;32044;52.386;13.278;2023-03-11T00:55:09;68.97;;;29.17;;
46322;SDS011;32044;52.386;13.278;2023-03-11T00:57:40;59.30;;;23.40;;
46322;SDS011;32044;52.386;13.278;2023-03-11T01:00:11;77.15;;;31.00;;
46322;SDS011;32044;52.386;13.278;2023-03-11T01:02:39;69.68;;;29.08;;
46322;SDS011;32044;52.386;13.278;2023-03-11T01:05:07;72.40;;;30.30;;
46322;SDS011;32044;52.386;13.278;2023-03-11T01:07:35;64.35;;;30.48;;
46322;SDS011;32044;52.386;13.278;2023-03-11T01:10:05;80.85;;;34.45;;
46322;SDS011;32044;52.386;13.278;2023-03-11T01:12:34;83.57;;;35.95;;
46322;SDS011;32044;52.386;13.278;2023-03-11T01:15:02;80.90;;;34.47;;
46322;SDS011;32044;52.386;13.278;2023-03-11T01:17:30;74.93;;;33.90;;
46322;SDS011;32044;52.386;13.278;2023-03-11T01:19:58;71.03;;;33.05;;
46322;SDS011;32044;52.386;13.278;2023-03-11T01:22:25;81.10;;;35.42;;
46322;SDS011;32044;52.386;13.278;2023-03-11T01:24:53;85.93;;;37.05;;
46322;SDS011;32044;52.386;13.278;2023-03-11T01:27:21;82.90;;;35.67;;
46322;SDS011;32044;52.386;13.278;2023-03-11T01:29:49;76.93;;;33.47;;
46322;SDS011;32044;52.386;13.278;2023-03-11T01:32:16;79.20;;;33.00;;
46322;SDS011;32044;52.386;13.278;2023-03-11T01:34:44;83.95;;;33.13;;
46322;SDS011;32044;52.386;13.278;2023-03-11T01:37:11;77.80;;;28.98;;
46322;SDS011;32044;52.386;13.278;2023-03-11T01:39:39;74.45;;;29.38;;
46322;SDS011;32044;52.386;13.278;2023-03-11T01:42:07;62.72;;;24.95;;
46322;SDS011;32044;52.386;13.278;2023-03-11T01:44:36;54.35;;;21.67;;
46322;SDS011;32044;52.386;13.278;2023-03-11T01:50:06;41.35;;;18.42;;
46322;SDS011;32044;52.386;13.278;2023-03-11T01:52:38;45.28;;;17.35;;
46322;SDS011;32044;52.386;13.278;2023-03-11T01:55:07;30.95;;;14.25;;
46322;SDS011;32044;52.386;13.278;2023-03-11T01:57:35;33.58;;;13.50;;
46322;SDS011;32044;52.386;13.278;2023-03-11T02:00:08;29.45;;;12.95;;
46322;SDS011;32044;52.386;13.278;2023-03-11T02:02:39;26.55;;;11.02;;
46322;SDS011;32044;52.386;13.278;2023-03-11T02:05:08;20.42;;;7.65;;
46322;SDS011;32044;52.386;13.278;2023-03-11T02:07:37;15.02;;;7.80;;
46322;SDS011;32044;52.386;13.278;2023-03-11T02:10:05;15.27;;;7.50;;
46322;SDS011;32044;52.386;13.278;2023-03-11T02:12:34;13.10;;;6.63;;
46322;SDS011;32044;52.386;13.278;2023-03-11T02:15:03;12.00;;;6.15;;
46322;SDS011;32044;52.386;13.278;2023-03-11T02:17:33;10.65;;;5.70;;
46322;SDS011;32044;52.386;13.278;2023-03-11T02:20:07;11.60;;;6.15;;
46322;SDS011;32044;52.386;13.278;2023-03-11T02:22:41;11.57;;;6.00;;
46322;SDS011;32044;52.386;13.278;2023-03-11T02:25:10;8.70;;;5.15;;
46322;SDS011;32044;52.386;13.278;2023-03-11T02:27:45;9.85;;;5.45;;
46322;SDS011;32044;52.386;13.278;2023-03-11T02:30:15;9.98;;;5.20;;
46322;SDS011;32044;52.386;13.278;2023-03-11T02:32:44;7.85;;;5.35;;
46322;SDS011;32044;52.386;13.278;2023-03-11T02:35:14;11.23;;;5.72;;
46322;SDS011;32044;52.386;13.278;2023-03-11T02:37:43;9.82;;;6.10;;
46322;SDS011;32044;52.386;13.278;2023-03-11T02:40:22;10.15;;;6.53;;
46322;SDS011;32044;52.386;13.278;2023-03-11T02:42:59;12.32;;;6.78;;
46322;SDS011;32044;52.386;13.278;2023-03-11T02:45:28;11.30;;;6.47;;
46322;SDS011;32044;52.386;13.278;2023-03-11T02:47:57;11.32;;;6.97;;
46322;SDS011;32044;52.386;13.278;2023-03-11T02:50:25;17.30;;;8.95;;
46322;SDS011;32044;52.386;13.278;2023-03-11T02:52:55;14.20;;;7.65;;
46322;SDS011;32044;52.386;13.278;2023-03-11T02:55:22;16.58;;;8.32;;
46322;SDS011;32044;52.386;13.278;2023-03-11T02:57:50;17.77;;;8.93;;
46322;SDS011;32044;52.386;13.278;2023-03-11T03:00:19;17.33;;;9.70;;
46322;SDS011;32044;52.386;13.278;2023-03-11T03:02:47;21.25;;;9.50;;
46322;SDS011;32044;52.386;13.278;2023-03-11T03:05:17;20.08;;;10.18;;
46322;SDS011;32044;52.386;13.278;2023-03-11T03:07:45;20.20;;;10.25;;
46322;SDS011;32044;52.386;13.278;2023-03-11T03:10:14;21.88;;;10.98;;
46322;SDS011;32044;52.386;13.278;2023-03-11T03:12:42;25.90;;;11.57;;
46322;SDS011;32044;52.386;13.278;2023-03-11T03:15:09;24.42;;;12.55;;
46322;SDS011;32044;52.386;13.278;2023-03-11T03:17:38;25.67;;;12.45;;
46322;SDS011;32044;52.386;13.278;2023-03-11T03:20:07;21.73;;;11.38;;
46322;SDS011;32044;52.386;13.278;2023-03-11T03:22:36;24.73;;;11.95;;
46322;SDS011;32044;52.386;13.278;2023-03-11T03:25:04;22.67;;;11.80;;
46322;SDS011;32044;52.386;13.278;2023-03-11T03:27:33;25.30;;;12.02;;
46322;SDS011;32044;52.386;13.278;2023-03-11T03:30:01;27.25;;;13.10;;
46322;SDS011;32044;52.386;13.278;2023-03-11T03:32:29;25.10;;;12.63;;
46322;SDS011;32044;52.386;13.278;2023-03-11T03:34:58;34.08;;;12.80;;
46322;SDS011;32044;52.386;13.278;2023-03-11T03:37:26;24.70;;;13.68;;
46322;SDS011;32044;52.386;13.278;2023-03-11T03:39:54;29.80;;;13.82;;
46322;SDS011;32044;52.386;13.278;2023-03-11T03:42:21;31.55;;;14.02;;
46322;SDS011;32044;52.386;13.278;2023-03-11T03:44:50;30.85;;;13.88;;
46322;SDS011;32044;52.386;13.278;2023-03-11T03:47:18;28.35;;;13.20;;
46322;SDS011;32044;52.386;13.278;2023-03-11T03:49:46;27.25;;;13.45;;
46322;SDS011;32044;52.386;13.278;2023-03-11T03:52:15;28.13;;;14.32;;
46322;SDS011;32044;52.386;13.278;2023-03-11T03:54:42;25.13;;;13.70;;
46322;SDS011;32044;52.386;13.278;2023-03-11T03:57:10;25.60;;;13.23;;
46322;SDS011;32044;52.386;13.278;2023-03-11T03:59:37;27.60;;;13.50;;
46322;SDS011;32044;52.386;13.278;2023-03-11T04:02:05;26.67;;;13.45;;
46322;SDS011;32044;52.386;13.278;2023-03-11T04:04:32;28.60;;;13.80;;
46322;SDS011;32044;52.386;13.278;2023-03-11T04:07:02;29.05;;;13.57;;
46322;SDS011;32044;52.386;13.278;2023-03-11T04:09:31;27.70;;;14.23;;
46322;SDS011;32044;52.386;13.278;2023-03-11T04:11:59;25.23;;;13.02;;
46322;SDS011;32044;52.386;13.278;2023-03-11T04:14:27;27.98;;;12.85;;
46322;SDS011;32044;52.386;13.278;2023-03-11T04:16:54;24.23;;;12.30;;
46322;SDS011;32044;52.386;13.278;2023-03-11T04:19:23;22.42;;;11.45;;
46322;SDS011;32044;52.386;13.278;2023-03-11T04:21:50;23.15;;;11.38;;
46322;SDS011;32044;52.386;13.278;2023-03-11T04:24:18;19.85;;;10.32;;
46322;SDS011;32044;52.386;13.278;2023-03-11T04:26:46;18.02;;;9.60;;
46322;SDS011;32044;52.386;13.278;2023-03-11T04:29:14;18.80;;;9.45;;
46322;SDS011;32044;52.386;13.278;2023-03-11T04:31:41;19.38;;;10.00;;
46322;SDS011;32044;52.386;13.278;2023-03-11T04:34:09;15.02;;;8.70;;
46322;SDS011;32044;52.386;13.278;2023-03-11T04:36:36;17.45;;;8.57;;
46322;SDS011;32044;52.386;13.278;2023-03-11T04:39:04;14.57;;;7.85;;
46322;SDS011;32044;52.386;13.278;2023-03-11T04:41:31;14.52;;;7.18;;
46322;SDS011;32044;52.386;13.278;2023-03-11T04:44:00;12.48;;;6.90;;
46322;SDS011;32044;52.386;13.278;2023-03-11T04:46:28;11.85;;;7.75;;
46322;SDS011;32044;52.386;13.278;2023-03-11T04:48:56;12.38;;;7.38;;
46322;SDS011;32044;52.386;13.278;2023-03-11T04:51:24;13.25;;;7.32;;
46322;SDS011;32044;52.386;13.278;2023-03-11T04:53:51;13.32;;;6.95;;
46322;SDS011;32044;52.386;13.278;2023-03-11T04:56:19;18.50;;;8.50;;
46322;SDS011;32044;52.386;13.278;2023-03-11T04:58:46;15.07;;;7.82;;
46322;SDS011;32044;52.386;13.278;2023-03-11T05:01:15;14.90;;;7.72;;
46322;SDS011;32044;52.386;13.278;2023-03-11T05:03:43;12.30;;;7.45;;
46322;SDS011;32044;52.386;13.278;2023-03-11T05:06:10;14.27;;;8.05;;
46322;SDS011;32044;52.386;13.278;2023-03-11T05:08:38;14.88;;;7.82;;
46322;SDS011;32044;52.386;13.278;2023-03-11T05:11:05;13.75;;;8.43;;
46322;SDS011;32044;52.386;13.278;2023-03-11T05:13:33;14.15;;;8.15;;
46322;SDS011;32044;52.386;13.278;2023-03-11T05:16:01;14.40;;;8.15;;
46322;SDS011;32044;52.386;13.278;2023-03-11T05:18:30;16.20;;;9.18;;
46322;SDS011;32044;52.386;13.278;2023-03-11T05:20:57;18.90;;;9.00;;
46322;SDS011;32044;52.386;13.278;2023-03-11T05:23:25;18.67;;;8.82;;
46322;SDS011;32044;52.386;13.278;2023-03-11T05:25:52;14.85;;;8.38;;
46322;SDS011;32044;52.386;13.278;2023-03-11T05:28:20;16.30;;;8.45;;
46322;SDS011;32044;52.386;13.278;2023-03-11T05:30:47;17.27;;;8.40;;
46322;SDS011;32044;52.386;13.278;2023-03-11T05:33:15;15.00;;;8.88;;
46322;SDS011;32044;52.386;13.278;2023-03-11T05:35:44;15.65;;;8.88;;
46322;SDS011;32044;52.386;13.278;2023-03-11T05:38:12;17.05;;;9.35;;
46322;SDS011;32044;52.386;13.278;2023-03-11T05:40:39;18.20;;;9.27;;
46322;SDS011;32044;52.386;13.278;2023-03-11T05:43:07;22.38;;;11.07;;
46322;SDS011;32044;52.386;13.278;2023-03-11T05:45:35;14.57;;;7.75;;
46322;SDS011;32044;52.386;13.278;2023-03-11T05:48:02;15.90;;;8.57;;
46322;SDS011;32044;52.386;13.278;2023-03-11T05:50:30;17.85;;;8.68;;
46322;SDS011;32044;52.386;13.278;2023-03-11T05:52:58;15.20;;;8.02;;
46322;SDS011;32044;52.386;13.278;2023-03-11T05:55:26;17.27;;;8.55;;
46322;SDS011;32044;52.386;13.278;2023-03-11T05:57:53;14.27;;;8.75;;
46322;SDS011;32044;52.386;13.278;2023-03-11T06:00:21;17.52;;;8.68;;
46322;SDS011;32044;52.386;13.278;2023-03-11T06:02:49;16.60;;;9.65;;
46322;SDS011;32044;52.386;13.278;2023-03-11T06:05:16;21.83;;;11.50;;
46322;SDS011;32044;52.386;13.278;2023-03-11T06:07:44;20.95;;;11.80;;
46322;SDS011;32044;52.386;13.278;2023-03-11T06:10:13;16.55;;;9.93;;
46322;SDS011;32044;52.386;13.278;2023-03-11T06:12:40;26.77;;;11.45;;
46322;SDS011;32044;52.386;13.278;2023-03-11T06:15:08;23.60;;;11.50;;
46322;SDS011;32044;52.386;13.278;2023-03-11T06:17:35;23.70;;;11.40;;
46322;SDS011;32044;52.386;13.278;2023-03-11T06:20:03;22.55;;;11.98;;
46322;SDS011;32044;52.386;13.278;2023-03-11T06:22:32;21.08;;;11.30;;
46322;SDS011;32044;52.386;13.278;2023-03-11T06:25:00;24.15;;;12.23;;
46322;SDS011;32044;52.386;13.278;2023-03-11T06:27:28;30.23;;;14.90;;
46322;SDS011;32044;52.386;13.278;2023-03-11T06:29:56;27.48;;;14.68;;
46322;SDS011;32044;52.386;13.278;2023-03-11T06:32:23;27.38;;;15.23;;
46322;SDS011;32044;52.386;13.278;2023-03-11T06:34:51;31.25;;;16.02;;
46322;SDS011;32044;52.386;13.278;2023-03-11T06:37:19;32.92;;;16.45;;
46322;SDS011;32044;52.386;13.278;2023-03-11T06:39:50;29.17;;;16.02;;
46322;SDS011;32044;52.386;13.278;2023-03-11T06:42:18;30.70;;;15.45;;
46322;SDS011;32044;52.386;13.278;2023-03-11T06:44:47;31.02;;;16.30;;
46322;SDS011;32044;52.386;13.278;2023-03-11T06:47:14;31.77;;;15.65;;
46322;SDS011;32044;52.386;13.278;2023-03-11T06:49:42;25.67;;;14.35;;
46322;SDS011;32044;52.386;13.278;2023-03-11T06:52:09;30.45;;;15.23;;
46322;SDS011;32044;52.386;13.278;2023-03-11T06:54:37;29.27;;;14.98;;
46322;SDS011;32044;52.386;13.278;2023-03-11T06:57:05;28.58;;;15.32;;
46322;SDS011;32044;52.386;13.278;2023-03-11T06:59:33;26.90;;;15.18;;
46322;SDS011;32044;52.386;13.278;2023-03-11T07:02:03;24.20;;;14.93;;
46322;SDS011;32044;52.386;13.278;2023-03-11T07:04:31;28.67;;;14.75;;
46322;SDS011;32044;52.386;13.278;2023-03-11T07:06:59;29.17;;;15.02;;
46322;SDS011;32044;52.386;13.278;2023-03-11T07:09:26;27.35;;;14.95;;
46322;SDS011;32044;52.386;13.278;2023-03-11T07:11:54;32.28;;;14.70;;
46322;SDS011;32044;52.386;13.278;2023-03-11T07:14:22;28.83;;;13.98;;
46322;SDS011;32044;52.386;13.278;2023-03-11T07:16:50;31.77;;;16.30;;
46322;SDS011;32044;52.386;13.278;2023-03-11T07:19:18;26.95;;;14.98;;
46322;SDS011;32044;52.386;13.278;2023-03-11T07:21:46;23.45;;;13.98;;
46322;SDS011;32044;52.386;13.278;2023-03-11T07:27:36;30.42;;;14.38;;
46322;SDS011;32044;52.386;13.278;2023-03-11T07:33:45;24.38;;;12.65;;
46322;SDS011;32044;52.386;13.278;2023-03-11T07:39:55;30.05;;;14.93;;
46322;SDS011;32044;52.386;13.278;2023-03-11T07:42:22;23.50;;;13.75;;
46322;SDS011;32044;52.386;13.278;2023-03-11T07:44:50;22.15;;;13.05;;
46322;SDS011;32044;52.386;13.278;2023-03-11T07:47:18;29.67;;;14.70;;
46322;SDS011;32044;52.386;13.278;2023-03-11T07:52:32;20.20;;;11.32;;
46322;SDS011;32044;52.386;13.278;2023-03-11T07:57:47;21.55;;;12.90;;
46322;SDS011;32044;52.386;13.278;2023-03-11T08:00:17;27.33;;;14.13;;
46322;SDS011;32044;52.386;13.278;2023-03-11T08:02:45;23.48;;;13.20;;
46322;SDS011;32044;52.386;13.278;2023-03-11T08:05:13;22.35;;;12.40;;
46322;SDS011;32044;52.386;13.278;2023-03-11T08:07:40;23.80;;;13.73;;
46322;SDS011;32044;52.386;13.278;2023-03-11T08:10:08;22.27;;;13.45;;
46322;SDS011;32044;52.386;13.278;2023-03-11T08:12:38;25.60;;;13.55;;
46322;SDS011;32044;52.386;13.278;2023-03-11T08:15:06;26.98;;;15.00;;
46322;SDS011;32044;52.386;13.278;2023-03-11T08:17:35;28.05;;;15.52;;
46322;SDS011;32044;52.386;13.278;2023-03-11T08:20:02;27.92;;;15.57;;
46322;SDS011;32044;52.386;13.278;2023-03-11T08:26:15;33.13;;;16.95;;
46322;SDS011;32044;52.386;13.278;2023-03-11T08:28:45;26.02;;;15.15;;
46322;SDS011;32044;52.386;13.278;2023-03-11T08:31:13;27.17;;;16.27;;
46322;SDS011;32044;52.386;13.278;2023-03-11T08:33:41;28.33;;;15.88;;
46322;SDS011;32044;52.386;13.278;2023-03-11T08:36:09;26.13;;;15.07;;
46322;SDS011;32044;52.386;13.278;2023-03-11T08:38:37;29.70;;;13.77;;
46322;SDS011;32044;52.386;13.278;2023-03-11T08:41:05;22.25;;;13.27;;
46322;SDS011;32044;52.386;13.278;2023-03-11T08:43:32;24.52;;;14.13;;
46322;SDS011;32044;52.386;13.278;2023-03-11T08:46:02;25.23;;;14.57;;
46322;SDS011;32044;52.386;13.278;2023-03-11T08:48:32;24.95;;;13.75;;
46322;SDS011;32044;52.386;13.278;2023-03-11T08:50:59;23.65;;;13.82;;
46322;SDS011;32044;52.386;13.278;2023-03-11T08:53:29;25.60;;;13.68;;
46322;SDS011;32044;52.386;13.278;2023-03-11T08:55:57;23.35;;;13.25;;
46322;SDS011;32044;52.386;13.278;2023-03-11T08:58:24;20.35;;;14.13;;
46322;SDS011;32044;52.386;13.278;2023-03-11T09:00:52;24.73;;;14.40;;
46322;SDS011;32044;52.386;13.278;2023-03-11T09:03:20;22.13;;;13.88;;
46322;SDS011;32044;52.386;13.278;2023-03-11T09:05:48;23.42;;;13.73;;
46322;SDS011;32044;52.386;13.278;2023-03-11T09:08:15;24.73;;;13.75;;
46322;SDS011;32044;52.386;13.278;2023-03-11T09:10:43;26.70;;;13.65;;
46322;SDS011;32044;52.386;13.278;2023-03-11T09:13:10;22.08;;;13.90;;
46322;SDS011;32044;52.386;13.278;2023-03-11T09:15:38;23.58;;;14.45;;
46322;SDS011;32044;52.386;13.278;2023-03-11T09:18:06;23.20;;;14.85;;
46322;SDS011;32044;52.386;13.278;2023-03-11T09:20:37;24.10;;;14.80;;
46322;SDS011;32044;52.386;13.278;2023-03-11T09:23:05;24.42;;;14.55;;
46322;SDS011;32044;52.386;13.278;2023-03-11T09:25:33;23.33;;;15.57;;
46322;SDS011;32044;52.386;13.278;2023-03-11T09:28:00;26.67;;;15.90;;
46322;SDS011;32044;52.386;13.278;2023-03-11T09:30:28;25.50;;;16.02;;
46322;SDS011;32044;52.386;13.278;2023-03-11T09:32:55;29.55;;;17.20;;
46322;SDS011;32044;52.386;13.278;2023-03-11T09:35:23;23.23;;;15.95;;
46322;SDS011;32044;52.386;13.278;2023-03-11T09:37:52;23.73;;;16.45;;
46322;SDS011;32044;52.386;13.278;2023-03-11T09:40:20;29.33;;;17.90;;
46322;SDS011;32044;52.386;13.278;2023-03-11T09:42:52;25.05;;;16.42;;
46322;SDS011;32044;52.386;13.278;2023-03-11T09:45:26;25.05;;;15.77;;
46322;SDS011;32044;52.386;13.278;2023-03-11T09:47:59;25.23;;;15.75;;
46322;SDS011;32044;52.386;13.278;2023-03-11T09:50:31;24.17;;;15.88;;
46322;SDS011;32044;52.386;13.278;2023-03-11T09:53:05;23.45;;;15.45;;
46322;SDS011;32044;52.386;13.278;2023-03-11T09:55:41;22.40;;;13.88;;
46322;SDS011;32044;52.386;13.278;2023-03-11T09:58:11;19.15;;;13.35;;
46322;SDS011;32044;52.386;13.278;2023-03-11T10:00:41;14.40;;;9.25;;
46322;SDS011;32044;52.386;13.278;2023-03-11T10:03:12;20.52;;;14.38;;
46322;SDS011;32044;52.386;13.278;2023-03-11T10:05:44;21.85;;;15.07;;
46322;SDS011;32044;52.386;13.278;2023-03-11T10:08:15;22.00;;;13.95;;
46322;SDS011;32044;52.386;13.278;2023-03-11T10:10:48;25.00;;;15.88;;
46322;SDS011;32044;52.386;13.278;2023-03-11T10:13:20;22.02;;;15.85;;
46322;SDS011;32044;52.386;13.278;2023-03-11T10:15:52;29.20;;;17.73;;
46322;SDS011;32044;52.386;13.278;2023-03-11T10:18:25;30.33;;;17.60;;
46322;SDS011;32044;52.386;13.278;2023-03-11T10:21:02;25.77;;;16.08;;
46322;SDS011;32044;52.386;13.278;2023-03-11T10:23:36;29.02;;;18.02;;
46322;SDS011;32044;52.386;13.278;2023-03-11T10:26:17;28.88;;;18.05;;
46322;SDS011;32044;52.386;13.278;2023-03-11T10:28:47;28.88;;;19.25;;
46322;SDS011;32044;52.386;13.278;2023-03-11T10:31:19;24.77;;;14.00;;
46322;SDS011;32044;52.386;13.278;2023-03-11T10:33:49;29.53;;;18.27;;
46322;SDS011;32044;52.386;13.278;2023-03-11T10:36:20;31.60;;;18.70;;
46322;SDS011;32044;52.386;13.278;2023-03-11T10:38:53;31.83;;;19.55;;
46322;SDS011;32044;52.386;13.278;2023-03-11T10:41:22;28.95;;;18.73;;
46322;SDS011;32044;52.386;13.278;2023-03-11T10:43:55;31.70;;;20.30;;
46322;SDS011;32044;52.386;13.278;2023-03-11T10:46:27;30.23;;;18.75;;
46322;SDS011;32044;52.386;13.278;2023-03-11T10:48:55;29.92;;;19.10;;
46322;SDS011;32044;52.386;13.278;2023-03-11T10:51:23;29.33;;;19.40;;
46322;SDS011;32044;52.386;13.278;2023-03-11T10:53:54;28.95;;;19.27;;
46322;SDS011;32044;52.386;13.278;2023-03-11T10:56:24;25.63;;;15.63;;
46322;SDS011;32044;52.386;13.278;2023-03-11T10:58:53;32.08;;;20.63;;
46322;SDS011;32044;52.386;13.278;2023-03-11T11:01:21;31.65;;;20.98;;
46322;SDS011;32044;52.386;13.278;2023-03-11T11:03:51;31.35;;;19.30;;
46322;SDS011;32044;52.386;13.278;2023-03-11T11:06:22;30.75;;;20.35;;
46322;SDS011;32044;52.386;13.278;2023-03-11T11:09:12;29.77;;;20.05;;
46322;SDS011;32044;52.386;13.278;2023-03-11T11:19:03;28.10;;;18.70;;
46322;SDS011;32044;52.386;13.278;2023-03-11T11:24:05;25.88;;;17.25;;
46322;SDS011;32044;52.386;13.278;2023-03-11T11:30:19;26.45;;;16.80;;
46322;SDS011;32044;52.386;13.278;2023-03-11T11:36:12;27.55;;;18.75;;
46322;SDS011;32044;52.386;13.278;2023-03-11T11:38:41;25.65;;;18.10;;
46322;SDS011;32044;52.386;13.278;2023-03-11T11:41:12;24.77;;;17.27;;
46322;SDS011;32044;52.386;13.278;2023-03-11T11:43:43;25.73;;;17.50;;
46322;SDS011;32044;52.386;13.278;2023-03-11T11:49:55;23.90;;;16.63;;
46322;SDS011;32044;52.386;13.278;2023-03-11T11:52:24;22.42;;;16.23;;
46322;SDS011;32044;52.386;13.278;2023-03-11T11:54:55;26.10;;;17.73;;
46322;SDS011;32044;52.386;13.278;2023-03-11T11:57:26;22.20;;;16.10;;
46322;SDS011;32044;52.386;13.278;2023-03-11T12:02:51;20.85;;;13.57;;
46322;SDS011;32044;52.386;13.278;2023-03-11T12:05:28;21.35;;;13.43;;
46322;SDS011;32044;52.386;13.278;2023-03-11T12:08:03;16.95;;;12.32;;
46322;SDS011;32044;52.386;13.278;2023-03-11T12:10:36;18.25;;;11.82;;
46322;SDS011;32044;52.386;13.278;2023-03-11T12:16:19;14.50;;;10.57;;
46322;SDS011;32044;52.386;13.278;2023-03-11T12:26:13;14.15;;;9.95;;
46322;SDS011;32044;52.386;13.278;2023-03-11T12:28:44;15.68;;;11.52;;
46322;SDS011;32044;52.386;13.278;2023-03-11T12:31:17;14.27;;;10.98;;
46322;SDS011;32044;52.386;13.278;2023-03-11T12:33:45;12.98;;;10.13;;
46322;SDS011;32044;52.386;13.278;2023-03-11T12:39:36;17.42;;;10.23;;
46322;SDS011;32044;52.386;13.278;2023-03-11T12:45:49;14.93;;;10.02;;
46322;SDS011;32044;52.386;13.278;2023-03-11T12:48:30;15.07;;;10.15;;
46322;SDS011;32044;52.386;13.278;2023-03-11T12:51:00;11.65;;;9.13;;
46322;SDS011;32044;52.386;13.278;2023-03-11T12:53:40;14.13;;;9.23;;
46322;SDS011;32044;52.386;13.278;2023-03-11T12:56:12;10.82;;;9.02;;
46322;SDS011;32044;52.386;13.278;2023-03-11T12:58:53;11.25;;;8.95;;
46322;SDS011;32044;52.386;13.278;2023-03-11T13:01:33;11.25;;;7.00;;
46322;SDS011;32044;52.386;13.278;2023-03-11T13:04:13;13.95;;;8.80;;
46322;SDS011;32044;52.386;13.278;2023-03-11T13:06:55;13.60;;;7.93;;
46322;SDS011;32044;52.386;13.278;2023-03-11T13:09:30;12.85;;;8.23;;
46322;SDS011;32044;52.386;13.278;2023-03-11T13:11:58;12.68;;;8.50;;
46322;SDS011;32044;52.386;13.278;2023-03-11T13:14:27;11.32;;;8.10;;
46322;SDS011;32044;52.386;13.278;2023-03-11T13:17:15;14.38;;;8.48;;
46322;SDS011;32044;52.386;13.278;2023-03-11T13:19:53;13.98;;;9.13;;
46322;SDS011;32044;52.386;13.278;2023-03-11T13:22:41;10.95;;;8.38;;
46322;SDS011;32044;52.386;13.278;2023-03-11T13:25:27;10.43;;;7.75;;
46322;SDS011;32044;52.386;13.278;2023-03-11T13:27:59;10.45;;;7.60;;
46322;SDS011;32044;52.386;13.278;2023-03-11T13:30:33;9.95;;;7.18;;
46322;SDS011;32044;52.386;13.278;2023-03-11T13:35:50;11.13;;;7.22;;
46322;SDS011;32044;52.386;13.278;2023-03-11T13:38:32;12.07;;;7.93;;
46322;SDS011;32044;52.386;13.278;2023-03-11T13:41:13;12.02;;;8.55;;
46322;SDS011;32044;52.386;13.278;2023-03-11T13:43:44;12.18;;;8.38;;
46322;SDS011;32044;52.386;13.278;2023-03-11T13:46:18;13.20;;;8.98;;
46322;SDS011;32044;52.386;13.278;2023-03-11T13:48:52;10.98;;;8.80;;
46322;SDS011;32044;52.386;13.278;2023-03-11T13:51:35;12.27;;;8.68;;
46322;SDS011;32044;52.386;13.278;2023-03-11T13:54:05;12.82;;;9.65;;
46322;SDS011;32044;52.386;13.278;2023-03-11T13:56:52;13.23;;;8.73;;
46322;SDS011;32044;52.386;13.278;2023-03-11T13:59:23;12.32;;;8.40;;
46322;SDS011;32044;52.386;13.278;2023-03-11T14:01:53;13.30;;;7.95;;
46322;SDS011;32044;52.386;13.278;2023-03-11T14:04:24;13.80;;;8.00;;
46322;SDS011;32044;52.386;13.278;2023-03-11T14:06:53;12.13;;;8.13;;
46322;SDS011;32044;52.386;13.278;2023-03-11T14:09:22;10.95;;;7.55;;
46322;SDS011;32044;52.386;13.278;2023-03-11T14:11:51;13.65;;;8.65;;
46322;SDS011;32044;52.386;13.278;2023-03-11T14:14:30;11.10;;;7.95;;
46322;SDS011;32044;52.386;13.278;2023-03-11T14:17:01;12.20;;;7.70;;
46322;SDS011;32044;52.386;13.278;2023-03-11T14:19:31;10.18;;;7.68;;
46322;SDS011;32044;52.386;13.278;2023-03-11T14:21:59;13.55;;;7.57;;
46322;SDS011;32044;52.386;13.278;2023-03-11T14:24:27;12.85;;;8.10;;
46322;SDS011;32044;52.386;13.278;2023-03-11T14:26:56;12.75;;;6.65;;
46322;SDS011;32044;52.386;13.278;2023-03-11T14:29:27;10.65;;;7.20;;
46322;SDS011;32044;52.386;13.278;2023-03-11T14:31:57;12.75;;;6.75;;
46322;SDS011;32044;52.386;13.278;2023-03-11T14:34:25;11.60;;;7.38;;
46322;SDS011;32044;52.386;13.278;2023-03-11T14:36:56;9.32;;;6.82;;
46322;SDS011;32044;52.386;13.278;2023-03-11T14:39:25;11.95;;;5.70;;
46322;SDS011;32044;52.386;13.278;2023-03-11T14:41:55;9.63;;;5.43;;
46322;SDS011;32044;52.386;13.278;2023-03-11T14:44:26;7.25;;;4.38;;
46322;SDS011;32044;52.386;13.278;2023-03-11T14:46:58;9.48;;;5.70;;
46322;SDS011;32044;52.386;13.278;2023-03-11T14:49:31;7.05;;;5.03;;
46322;SDS011;32044;52.386;13.278;2023-03-11T14:52:00;9.52;;;5.55;;
46322;SDS011;32044;52.386;13.278;2023-03-11T14:54:31;8.05;;;5.55;;
46322;SDS011;32044;52.386;13.278;2023-03-11T14:57:01;7.10;;;5.35;;
46322;SDS011;32044;52.386;13.278;2023-03-11T14:59:30;5.95;;;4.57;;
46322;SDS011;32044;52.386;13.278;2023-03-11T15:02:02;8.32;;;5.00;;
46322;SDS011;32044;52.386;13.278;2023-03-11T15:04:47;6.78;;;4.47;;
46322;SDS011;32044;52.386;13.278;2023-03-11T15:07:18;8.07;;;4.75;;
46322;SDS011;32044;52.386;13.278;2023-03-11T15:09:46;6.30;;;4.43;;
46322;SDS011;32044;52.386;13.278;2023-03-11T15:12:28;8.50;;;4.30;;
46322;SDS011;32044;52.386;13.278;2023-03-11T15:14:57;5.95;;;3.95;;
46322;SDS011;32044;52.386;13.278;2023-03-11T15:17:25;6.68;;;4.10;;
46322;SDS011;32044;52.386;13.278;2023-03-11T15:20:21;6.85;;;3.72;;
46322;SDS011;32044;52.386;13.278;2023-03-11T15:22:54;6.07;;;3.53;;
46322;SDS011;32044;52.386;13.278;2023-03-11T15:25:27;6.65;;;4.30;;
46322;SDS011;32044;52.386;13.278;2023-03-11T15:27:56;6.45;;;3.67;;
46322;SDS011;32044;52.386;13.278;2023-03-11T15:30:24;6.10;;;3.72;;
46322;SDS011;32044;52.386;13.278;2023-03-11T15:32:54;4.20;;;3.55;;
46322;SDS011;32044;52.386;13.278;2023-03-11T15:35:22;6.85;;;4.35;;
46322;SDS011;32044;52.386;13.278;2023-03-11T15:38:10;8.63;;;3.88;;